createdAt,value
2022-10-27T10:54:16.311Z,5.18
2022-10-27T10:56:43.681Z,5.38
2022-10-27T10:59:10.430Z,5.95
2022-10-27T11:02:21.604Z,5.00
2022-10-27T11:04:48.592Z,4.95
2022-10-27T11:07:33.912Z,5.10
2022-10-27T11:15:30.360Z,4.53
2022-10-27T11:18:04.717Z,4.18
2022-10-27T11:20:36.084Z,4.70
2022-10-27T11:25:59.378Z,4.30
2022-10-27T11:28:54.724Z,4.40
2022-10-27T11:34:39.402Z,4.35
2022-10-27T11:37:13.938Z,3.88
2022-10-27T11:39:48.409Z,3.67
2022-10-27T11:42:51.470Z,3.10
2022-10-27T11:46:05.351Z,4.38
2022-10-27T11:51:41.001Z,3.58
2022-10-27T12:10:37.410Z,3.25
2022-10-27T12:13:39.997Z,3.33
2022-10-27T13:05:24.024Z,4.03
2022-10-27T13:11:36.245Z,4.43
2022-10-27T13:14:18.578Z,3.17
2022-10-27T13:17:27.346Z,3.17
2022-10-27T13:19:59.607Z,3.17
2022-10-27T13:22:39.781Z,2.53
2022-10-27T13:25:16.867Z,3.00
2022-10-27T13:28:06.720Z,3.05
2022-10-27T13:30:37.068Z,2.50
2022-10-27T13:33:06.298Z,2.30
2022-10-27T13:35:35.572Z,2.42
2022-10-27T13:38:24.667Z,2.10
2022-10-27T13:40:54.103Z,2.05
2022-10-27T13:43:23.996Z,2.10
2022-10-27T13:45:56.288Z,2.00
2022-10-27T13:48:23.228Z,1.90
2022-10-27T13:50:55.944Z,2.40
2022-10-27T13:53:26.370Z,1.60
2022-10-27T13:56:02.713Z,1.85
2022-10-27T13:58:44.062Z,3.08
2022-10-27T14:04:12.251Z,2.60
2022-10-27T14:06:43.453Z,2.25
2022-10-27T14:12:32.724Z,2.35
2022-10-27T14:15:10.318Z,2.20
2022-10-27T14:17:37.813Z,2.17
2022-10-27T14:20:16.511Z,2.30
2022-10-27T14:22:49.248Z,2.20
2022-10-27T14:25:22.324Z,2.20
2022-10-27T14:27:50.523Z,2.67
2022-10-27T14:30:22.540Z,2.60
2022-10-27T14:32:49.715Z,1.98
2022-10-27T14:35:17.070Z,2.00
2022-10-27T14:37:44.066Z,2.28
2022-10-27T14:40:19.097Z,2.20
2022-10-27T14:42:46.908Z,2.25
2022-10-27T14:45:21.871Z,2.33
2022-10-27T14:48:07.503Z,2.20
2022-10-27T14:50:40.919Z,2.70
2022-10-27T14:53:32.649Z,2.80
2022-10-27T14:56:23.698Z,2.95
2022-10-27T14:58:56.177Z,2.85
2022-10-27T15:01:34.431Z,2.22
2022-10-27T15:04:21.890Z,2.30
2022-10-27T15:06:51.583Z,2.10
2022-10-27T15:09:36.315Z,2.45
2022-10-27T15:12:32.648Z,3.40
2022-10-27T15:15:03.654Z,2.50
2022-10-27T15:17:36.525Z,2.67
2022-10-27T15:20:06.917Z,3.10
2022-10-27T15:22:34.365Z,3.60
2022-10-27T15:25:02.179Z,3.65
2022-10-27T15:27:33.462Z,3.05
2022-10-27T15:32:38.939Z,2.97
2022-10-27T15:35:33.496Z,3.40
2022-10-27T15:38:02.809Z,3.20
2022-10-27T15:40:47.874Z,3.47
2022-10-27T15:43:27.305Z,3.42
2022-10-27T15:46:32.100Z,3.10
2022-10-27T15:49:01.867Z,3.55
2022-10-27T15:51:58.075Z,3.90
2022-10-27T15:54:40.671Z,3.05
2022-10-27T15:57:34.273Z,3.10
2022-10-27T16:00:13.413Z,2.55
2022-10-27T16:02:59.350Z,2.72
2022-10-27T16:05:32.346Z,2.53
2022-10-27T16:08:12.131Z,3.10
2022-10-27T16:10:41.824Z,3.13
2022-10-27T16:13:13.489Z,3.88
2022-10-27T16:15:44.932Z,3.60
2022-10-27T16:18:16.111Z,3.80
2022-10-27T16:20:46.513Z,3.35
2022-10-27T16:23:15.881Z,3.10
2022-10-27T16:25:47.276Z,3.05
2022-10-27T16:28:24.638Z,2.92
2022-10-27T16:30:52.122Z,2.88
2022-10-27T16:33:22.708Z,3.13
2022-10-27T16:35:50.265Z,2.80
2022-10-27T16:38:17.365Z,3.17
2022-10-27T16:40:47.997Z,3.50
2022-10-27T16:43:25.712Z,4.00
2022-10-27T16:45:52.641Z,3.30
2022-10-27T16:48:20.318Z,3.10
2022-10-27T16:50:47.542Z,3.65
2022-10-27T16:53:20.049Z,3.72
2022-10-27T16:56:06.047Z,3.75
2022-10-27T16:58:40.483Z,3.50
2022-10-27T17:01:22.256Z,3.58
2022-10-27T17:03:49.687Z,3.50
2022-10-27T17:06:22.152Z,3.80
2022-10-27T17:08:49.291Z,3.50
2022-10-27T17:11:17.887Z,4.55
2022-10-27T17:13:59.793Z,4.45
2022-10-27T17:16:27.661Z,4.65
2022-10-27T17:18:55.414Z,4.20
2022-10-27T17:21:23.607Z,4.88
2022-10-27T17:23:51.559Z,3.97
2022-10-27T17:26:20.687Z,4.00
2022-10-27T17:28:50.080Z,4.75
2022-10-27T17:31:22.470Z,4.20
2022-10-27T17:33:53.981Z,5.13
2022-10-27T17:36:21.461Z,4.85
2022-10-27T17:38:49.111Z,4.55
2022-10-27T17:41:16.553Z,4.88
2022-10-27T17:43:43.786Z,4.35
2022-10-27T17:46:16.954Z,4.32
2022-10-27T17:48:50.056Z,3.97
2022-10-27T17:51:23.387Z,3.58
2022-10-27T17:53:51.922Z,3.35
2022-10-27T17:56:24.752Z,3.00
2022-10-27T17:58:52.528Z,3.20
2022-10-27T18:01:31.637Z,3.30
2022-10-27T18:04:10.617Z,4.03
2022-10-27T18:06:40.777Z,3.42
2022-10-27T18:09:09.257Z,3.28
2022-10-27T18:11:38.308Z,3.78
2022-10-27T18:14:09.534Z,4.30
2022-10-27T18:16:37.073Z,3.20
2022-10-27T18:19:13.559Z,3.88
2022-10-27T18:21:43.840Z,3.10
2022-10-27T18:24:12.746Z,3.53
2022-10-27T18:26:42.553Z,3.00
2022-10-27T18:29:11.922Z,3.55
2022-10-27T18:31:40.532Z,4.28
2022-10-27T18:34:13.426Z,4.13
2022-10-27T18:36:42.143Z,3.90
2022-10-27T18:39:15.880Z,4.13
2022-10-27T18:41:43.484Z,3.78
2022-10-27T18:44:10.867Z,3.10
2022-10-27T18:46:38.668Z,3.33
2022-10-27T18:49:09.444Z,3.80
2022-10-27T18:51:43.024Z,2.90
2022-10-27T18:54:13.342Z,3.28
2022-10-27T18:56:45.837Z,3.45
2022-10-27T18:59:28.670Z,2.70
2022-10-27T19:01:57.714Z,3.70
2022-10-27T19:04:24.949Z,2.50
2022-10-27T19:06:53.283Z,3.13
2022-10-27T19:09:20.205Z,2.67
2022-10-27T19:11:47.461Z,2.83
2022-10-27T19:14:14.518Z,3.70
2022-10-27T19:16:41.560Z,3.25
2022-10-27T19:19:08.518Z,3.30
2022-10-27T19:21:35.440Z,3.40
2022-10-27T19:24:02.640Z,2.92
2022-10-27T19:26:32.427Z,3.30
2022-10-27T19:28:59.639Z,3.78
2022-10-27T19:31:30.065Z,4.13
2022-10-27T19:33:58.054Z,3.83
2022-10-27T19:36:28.606Z,3.72
2022-10-27T19:38:57.414Z,4.20
2022-10-27T19:41:30.676Z,3.65
2022-10-27T19:43:57.746Z,3.67
2022-10-27T19:46:26.407Z,3.53
2022-10-27T19:48:59.277Z,3.40
2022-10-27T19:51:29.589Z,4.05
2022-10-27T19:54:00.666Z,3.33
2022-10-27T19:56:32.254Z,3.58
2022-10-27T19:59:02.950Z,3.38
2022-10-27T20:01:35.518Z,3.28
2022-10-27T20:04:05.142Z,3.08
2022-10-27T20:06:32.659Z,3.20
2022-10-27T20:09:00.131Z,3.33
2022-10-27T20:11:30.500Z,3.65
2022-10-27T20:13:58.164Z,4.00
2022-10-27T20:16:28.456Z,3.50
2022-10-27T20:18:56.346Z,3.25
2022-10-27T20:21:23.249Z,3.10
2022-10-27T20:23:50.276Z,3.22
2022-10-27T20:26:33.951Z,2.83
2022-10-27T20:29:01.119Z,3.30
2022-10-27T20:31:28.570Z,3.17
2022-10-27T20:33:56.415Z,3.03
2022-10-27T20:36:23.572Z,3.10
2022-10-27T20:38:50.627Z,3.33
2022-10-27T20:41:21.172Z,2.72
2022-10-27T20:43:52.807Z,2.90
2022-10-27T20:46:19.814Z,3.50
2022-10-27T20:48:52.926Z,2.75
2022-10-27T20:51:21.930Z,2.95
2022-10-27T20:53:55.585Z,2.88
2022-10-27T20:56:28.741Z,3.28
2022-10-27T20:58:56.401Z,3.35
2022-10-27T21:01:35.220Z,2.97
2022-10-27T21:04:06.750Z,3.70
2022-10-27T21:06:37.191Z,3.20
2022-10-27T21:09:08.510Z,3.50
2022-10-27T21:14:04.997Z,2.88
2022-10-27T21:16:32.614Z,3.20
2022-10-27T21:19:01.955Z,3.42
2022-10-27T21:21:30.911Z,3.95
2022-10-27T21:24:05.428Z,3.33
2022-10-27T21:26:34.986Z,3.70
2022-10-27T21:29:02.459Z,3.40
2022-10-27T21:31:32.455Z,3.03
2022-10-27T21:34:04.438Z,3.10
2022-10-27T21:36:31.915Z,3.33
2022-10-27T21:38:59.028Z,3.40
2022-10-27T21:41:26.304Z,3.67
2022-10-27T21:43:55.611Z,3.03
2022-10-27T21:46:26.241Z,3.05
2022-10-27T21:48:59.004Z,2.90
2022-10-27T21:51:27.046Z,3.10
2022-10-27T21:54:00.813Z,3.15
2022-10-27T21:56:30.738Z,3.50
2022-10-27T21:58:59.005Z,3.30
2022-10-27T22:01:26.691Z,2.90
2022-10-27T22:03:54.725Z,3.45
2022-10-27T22:06:33.273Z,3.65
2022-10-27T22:09:00.928Z,3.40
2022-10-27T22:11:34.968Z,3.00
2022-10-27T22:14:02.634Z,3.47
2022-10-27T22:16:30.767Z,2.67
2022-10-27T22:19:00.941Z,3.15
2022-10-27T22:21:33.021Z,3.17
2022-10-27T22:24:00.686Z,3.30
2022-10-27T22:26:30.813Z,2.78
2022-10-27T22:28:57.750Z,3.25
2022-10-27T22:31:30.461Z,3.30
2022-10-27T22:34:01.119Z,3.35
2022-10-27T22:36:29.092Z,3.27
2022-10-27T22:39:01.610Z,3.15
2022-10-27T22:41:30.051Z,3.30
2022-10-27T22:43:57.891Z,3.00
2022-10-27T22:46:30.493Z,2.95
2022-10-27T22:48:57.843Z,3.05
2022-10-27T22:51:26.880Z,3.38
2022-10-27T22:53:55.775Z,3.00
2022-10-27T22:56:33.214Z,3.88
2022-10-27T22:59:03.830Z,3.42
2022-10-27T23:01:37.397Z,3.37
2022-10-27T23:04:08.023Z,3.17
2022-10-27T23:06:36.977Z,3.77
2022-10-27T23:09:11.508Z,3.92
2022-10-27T23:11:38.544Z,3.75
2022-10-27T23:14:06.656Z,4.32
2022-10-27T23:16:34.673Z,3.38
2022-10-27T23:19:01.781Z,3.45
2022-10-27T23:21:29.593Z,3.63
2022-10-27T23:23:58.582Z,3.33
2022-10-27T23:26:32.107Z,3.63
2022-10-27T23:29:01.491Z,3.10
2022-10-27T23:31:30.204Z,3.40
2022-10-27T23:34:00.338Z,3.97
2022-10-27T23:36:29.456Z,3.33
2022-10-27T23:38:57.307Z,3.50
2022-10-27T23:41:24.516Z,3.40
2022-10-27T23:43:59.049Z,3.20
2022-10-27T23:46:27.523Z,3.60
2022-10-27T23:48:54.685Z,4.10
2022-10-27T23:51:22.775Z,3.20
2022-10-27T23:53:50.193Z,3.08
2022-10-27T23:56:17.283Z,3.00
2022-10-27T23:58:45.361Z,4.32
